createdAt,value
2018-01-20T00:01:00.217Z,83.30
2018-01-20T00:03:37.036Z,83.10
2018-01-20T00:06:05.405Z,83.00
2018-01-20T00:08:40.568Z,82.90
2018-01-20T00:11:29.879Z,82.80
2018-01-20T00:14:01.503Z,82.70
2018-01-20T00:16:30.426Z,82.50
2018-01-20T00:18:58.559Z,82.50
2018-01-20T00:21:27.347Z,82.40
2018-01-20T00:23:57.097Z,82.40
2018-01-20T00:26:31.165Z,82.40
2018-01-20T00:29:03.212Z,82.40
2018-01-20T00:44:26.340Z,82.30
2018-01-20T00:46:54.951Z,81.80
2018-01-20T01:02:18.736Z,82.30
2018-01-20T01:04:50.932Z,82.40
2018-01-20T01:07:19.961Z,83.70
2018-01-20T01:22:43.168Z,83.30
2018-01-20T01:25:11.261Z,82.70
2018-01-20T01:27:39.371Z,83.10
2018-01-20T01:30:08.159Z,83.50
2018-01-20T01:32:36.272Z,83.70
2018-01-20T01:35:04.415Z,83.60
2018-01-20T01:37:32.507Z,83.70
2018-01-20T01:40:00.604Z,83.50
2018-01-20T01:55:24.290Z,83.50
2018-01-20T01:57:52.399Z,82.50
2018-01-20T02:00:20.536Z,83.10
2018-01-20T02:02:48.644Z,83.50
2018-01-20T02:05:16.813Z,83.50
2018-01-20T02:07:44.924Z,83.60
2018-01-20T02:10:13.020Z,83.60
2018-01-20T02:12:41.132Z,83.40
2018-01-20T02:15:09.231Z,83.30
2018-01-20T02:17:38.156Z,83.00
2018-01-20T02:20:06.288Z,82.70
2018-01-20T02:22:34.388Z,82.40
2018-01-20T02:37:52.555Z,82.40
2018-01-20T02:40:20.661Z,81.40
2018-01-20T02:42:48.747Z,81.90
2018-01-20T02:45:17.665Z,82.40
2018-01-20T02:47:45.773Z,82.40
2018-01-20T02:50:13.879Z,82.60
2018-01-20T02:52:42.012Z,82.70
2018-01-20T02:55:10.109Z,82.60
2018-01-20T02:57:38.287Z,82.40
2018-01-20T03:00:06.383Z,82.30
2018-01-20T03:02:34.475Z,82.30
2018-01-20T03:05:02.585Z,82.30
2018-01-20T03:07:30.900Z,82.10
2018-01-20T03:09:59.000Z,82.10
2018-01-20T03:12:27.232Z,82.00
2018-01-20T03:14:55.313Z,81.90
2018-01-20T03:17:23.484Z,81.70
2018-01-20T03:19:51.580Z,81.60
2018-01-20T03:22:19.682Z,81.50
2018-01-20T03:24:47.774Z,81.50
2018-01-20T03:27:15.881Z,81.50
2018-01-20T03:29:43.968Z,81.50
2018-01-20T03:32:12.078Z,81.50
2018-01-20T03:34:40.171Z,81.50
2018-01-20T03:37:08.441Z,81.60
2018-01-20T03:39:36.678Z,81.70
2018-01-20T03:42:04.838Z,81.80
2018-01-20T03:44:32.928Z,81.80
2018-01-20T03:47:01.064Z,81.90
2018-01-20T03:49:29.929Z,81.90
2018-01-20T03:51:58.026Z,81.90
2018-01-20T03:54:26.892Z,82.10
2018-01-20T03:56:54.990Z,82.10
2018-01-20T03:59:23.865Z,82.30
2018-01-20T04:01:51.950Z,82.20
2018-01-20T04:04:20.095Z,82.20
2018-01-20T04:06:48.165Z,82.20
2018-01-20T04:09:16.373Z,82.30
2018-01-20T04:11:45.227Z,82.20
2018-01-20T04:14:13.329Z,82.20
2018-01-20T04:16:42.184Z,82.00
2018-01-20T04:19:10.275Z,81.90
2018-01-20T04:21:39.175Z,81.20
2018-01-20T04:37:02.882Z,81.50
2018-01-20T04:39:30.979Z,80.60
2018-01-20T04:41:59.165Z,81.30
2018-01-20T04:44:27.398Z,81.80
2018-01-20T04:46:55.548Z,82.10
2018-01-20T04:49:23.690Z,82.20
2018-01-20T04:51:51.752Z,82.30
2018-01-20T04:54:19.844Z,82.10
2018-01-20T04:56:48.008Z,82.00
2018-01-20T04:59:16.926Z,82.00
2018-01-20T05:01:45.040Z,81.80
2018-01-20T05:04:13.160Z,81.90
2018-01-20T05:06:41.519Z,81.80
2018-01-20T05:09:10.373Z,81.90
2018-01-20T05:11:38.444Z,81.80
2018-01-20T05:14:06.562Z,81.80
2018-01-20T05:16:34.666Z,81.80
2018-01-20T05:19:02.780Z,81.90
2018-01-20T05:21:30.866Z,81.90
2018-01-20T05:23:58.986Z,81.90
2018-01-20T05:26:27.109Z,81.90
2018-01-20T05:28:55.812Z,81.90
2018-01-20T05:31:23.899Z,82.10
2018-01-20T05:33:52.131Z,82.20
2018-01-20T05:36:20.416Z,82.10
2018-01-20T05:38:48.540Z,82.30
2018-01-20T05:41:16.655Z,82.30
2018-01-20T05:43:44.771Z,82.20
2018-01-20T05:46:12.861Z,82.20
2018-01-20T05:48:40.939Z,82.20
2018-01-20T05:51:09.311Z,82.20
2018-01-20T05:53:37.503Z,82.10
2018-01-20T05:56:05.599Z,82.10
2018-01-20T05:58:33.681Z,81.90
2018-01-20T06:01:02.683Z,82.00
2018-01-20T06:03:30.837Z,82.10
2018-01-20T06:05:59.047Z,81.90
2018-01-20T06:08:27.183Z,81.90
2018-01-20T06:10:55.281Z,81.80
2018-01-20T06:13:23.456Z,81.70
2018-01-20T06:15:51.500Z,81.60
2018-01-20T06:18:19.652Z,81.70
2018-01-20T06:20:48.374Z,81.80
2018-01-20T06:23:16.502Z,81.90
2018-01-20T06:25:44.599Z,81.80
2018-01-20T06:28:12.698Z,81.80
2018-01-20T06:30:40.802Z,81.80
2018-01-20T06:33:08.914Z,81.80
2018-01-20T06:35:37.044Z,81.80
2018-01-20T06:38:05.905Z,81.50
2018-01-20T06:40:34.567Z,81.60
2018-01-20T06:43:02.710Z,81.50
2018-01-20T06:45:30.784Z,81.50
2018-01-20T06:47:58.866Z,81.70
2018-01-20T06:50:26.974Z,81.70
2018-01-20T06:52:55.057Z,81.70
2018-01-20T06:55:23.152Z,81.70
2018-01-20T06:57:51.241Z,81.60
2018-01-20T07:00:19.331Z,81.60
2018-01-20T07:02:47.449Z,81.60
2018-01-20T07:05:15.539Z,81.50
2018-01-20T07:07:43.626Z,81.50
2018-01-20T07:10:11.809Z,81.50
2018-01-20T07:12:40.879Z,81.50
2018-01-20T07:15:09.049Z,81.10
2018-01-20T07:17:37.136Z,81.10
2018-01-20T07:20:05.255Z,81.30
2018-01-20T07:22:33.335Z,80.70
2018-01-20T07:25:01.416Z,80.90
2018-01-20T07:27:29.585Z,80.90
2018-01-20T07:29:58.601Z,80.00
2018-01-20T07:32:26.742Z,80.00
2018-01-20T07:34:54.861Z,80.10
2018-01-20T07:37:22.968Z,79.40
2018-01-20T07:39:56.590Z,79.90
2018-01-20T07:42:24.778Z,79.00
2018-01-20T07:44:52.860Z,78.90
2018-01-20T07:47:20.989Z,79.30
2018-01-20T07:49:49.086Z,79.30
2018-01-20T07:52:17.226Z,79.50
2018-01-20T07:54:45.302Z,79.80
2018-01-20T07:57:13.394Z,80.00
2018-01-20T07:59:42.248Z,80.50
2018-01-20T08:02:10.327Z,80.40
2018-01-20T08:04:38.432Z,80.50
2018-01-20T08:07:06.510Z,80.60
2018-01-20T08:09:34.638Z,80.80
2018-01-20T08:12:02.744Z,80.80
2018-01-20T08:14:30.837Z,80.90
2018-01-20T08:16:59.512Z,80.90
2018-01-20T08:19:27.645Z,81.10
2018-01-20T08:21:55.757Z,81.00
2018-01-20T08:24:25.233Z,80.90
2018-01-20T08:26:53.321Z,80.90
2018-01-20T08:29:21.481Z,80.60
2018-01-20T08:31:50.321Z,80.90
2018-01-20T08:34:18.457Z,80.90
2018-01-20T08:36:46.535Z,80.60
2018-01-20T08:39:14.641Z,80.90
2018-01-20T08:41:42.770Z,80.60
2018-01-20T08:44:11.655Z,80.80
2018-01-20T08:46:39.732Z,79.90
2018-01-20T08:49:07.820Z,80.10
2018-01-20T08:51:35.928Z,79.40
2018-01-20T08:54:04.056Z,79.10
2018-01-20T08:56:32.192Z,78.80
2018-01-20T08:59:00.290Z,78.40
2018-01-20T09:01:28.428Z,78.50
2018-01-20T09:03:56.515Z,78.90
2018-01-20T09:06:24.592Z,79.20
2018-01-20T09:08:52.692Z,79.60
2018-01-20T09:11:20.757Z,79.90
2018-01-20T09:13:49.038Z,80.20
2018-01-20T09:16:17.388Z,80.50
2018-01-20T09:18:45.500Z,80.80
2018-01-20T09:21:13.678Z,80.80
2018-01-20T09:23:41.771Z,80.80
2018-01-20T09:26:10.369Z,80.90
2018-01-20T09:28:38.515Z,81.00
2018-01-20T09:31:06.675Z,80.90
2018-01-20T09:33:35.077Z,80.90
2018-01-20T09:36:03.177Z,80.90
2018-01-20T09:38:31.259Z,81.00
2018-01-20T09:40:59.431Z,81.20
2018-01-20T09:43:28.023Z,81.50
2018-01-20T09:45:56.205Z,81.60
2018-01-20T09:48:24.295Z,81.60
2018-01-20T09:50:52.426Z,81.70
2018-01-20T09:53:20.515Z,81.80
2018-01-20T09:55:48.659Z,81.70
2018-01-20T09:58:16.953Z,81.80
2018-01-20T10:00:45.040Z,81.90
2018-01-20T10:03:13.117Z,81.80
2018-01-20T10:05:41.273Z,81.80
2018-01-20T10:08:09.506Z,81.70
2018-01-20T10:10:37.728Z,81.20
2018-01-20T10:13:05.900Z,81.00
2018-01-20T10:15:33.992Z,81.20
2018-01-20T10:18:02.852Z,81.00
2018-01-20T10:20:30.943Z,81.00
2018-01-20T10:22:59.308Z,81.30
2018-01-20T10:25:27.402Z,81.10
2018-01-20T10:27:55.548Z,81.10
2018-01-20T10:30:23.688Z,81.20
2018-01-20T10:32:51.934Z,81.10
2018-01-20T10:35:20.784Z,80.20
2018-01-20T10:37:48.920Z,80.10
2018-01-20T10:40:16.990Z,80.60
2018-01-20T10:42:45.163Z,79.20
2018-01-20T10:45:13.265Z,79.70
2018-01-20T10:47:41.588Z,79.70
2018-01-20T10:50:10.443Z,78.60
2018-01-20T10:52:39.450Z,78.10
2018-01-20T10:55:07.541Z,78.10
2018-01-20T10:57:35.647Z,78.60
2018-01-20T11:00:03.757Z,78.30
2018-01-20T11:02:31.937Z,78.00
2018-01-20T11:05:00.123Z,77.80
2018-01-20T11:07:28.353Z,78.10
2018-01-20T11:09:56.527Z,78.80
2018-01-20T11:12:24.647Z,79.30
2018-01-20T11:14:52.767Z,79.60
2018-01-20T11:17:20.834Z,80.20
2018-01-20T11:19:48.955Z,80.70
2018-01-20T11:22:17.096Z,81.10
2018-01-20T11:24:45.168Z,81.30
2018-01-20T11:27:13.260Z,81.30
2018-01-20T11:29:41.339Z,81.20
2018-01-20T11:32:09.438Z,81.20
2018-01-20T11:34:37.532Z,81.20
2018-01-20T11:37:05.629Z,81.10
2018-01-20T11:39:33.702Z,80.80
2018-01-20T11:42:01.804Z,80.80
2018-01-20T11:44:29.880Z,80.80
2018-01-20T11:46:58.778Z,81.10
2018-01-20T11:49:26.882Z,80.60
2018-01-20T11:51:54.962Z,80.30
2018-01-20T11:54:23.070Z,79.60
2018-01-20T11:56:51.141Z,79.30
2018-01-20T11:59:19.246Z,79.20
2018-01-20T12:01:47.333Z,79.00
2018-01-20T12:04:15.543Z,79.30
2018-01-20T12:06:43.637Z,79.20
2018-01-20T12:09:11.720Z,79.60
2018-01-20T12:11:39.836Z,79.70
2018-01-20T12:14:08.022Z,79.40
2018-01-20T12:16:36.115Z,79.60
2018-01-20T12:19:04.265Z,80.00
2018-01-20T12:21:33.227Z,80.30
2018-01-20T12:24:02.083Z,80.50
2018-01-20T12:26:30.175Z,80.50
2018-01-20T12:28:59.175Z,80.20
2018-01-20T12:31:27.272Z,80.20
2018-01-20T12:33:55.343Z,79.90
2018-01-20T12:36:23.446Z,80.20
2018-01-20T12:38:51.610Z,80.20
2018-01-20T12:41:19.745Z,80.30
2018-01-20T12:43:47.917Z,80.10
2018-01-20T12:46:16.019Z,80.00
2018-01-20T12:48:44.124Z,79.60
2018-01-20T12:51:12.247Z,79.50
2018-01-20T12:53:40.447Z,79.30
2018-01-20T12:56:08.603Z,79.40
2018-01-20T12:58:36.695Z,79.50
2018-01-20T13:01:04.806Z,79.70
2018-01-20T13:03:32.880Z,79.10
2018-01-20T13:06:00.992Z,79.30
2018-01-20T13:08:29.063Z,79.50
2018-01-20T13:10:57.163Z,80.10
2018-01-20T13:13:25.257Z,80.30
2018-01-20T13:15:53.346Z,80.40
2018-01-20T13:18:21.615Z,80.50
2018-01-20T13:20:49.800Z,79.90
2018-01-20T13:23:18.662Z,80.50
2018-01-20T13:25:46.748Z,80.40
2018-01-20T13:28:15.618Z,79.50
2018-01-20T13:30:44.744Z,79.50
2018-01-20T13:33:12.980Z,79.40
2018-01-20T13:35:43.144Z,80.00
2018-01-20T13:38:12.000Z,80.30
2018-01-20T13:40:40.115Z,80.30
2018-01-20T13:43:08.523Z,80.50
2018-01-20T13:45:36.637Z,80.60
2018-01-20T13:48:04.722Z,80.90
2018-01-20T13:50:32.809Z,80.80
2018-01-20T13:53:00.882Z,81.00
2018-01-20T13:55:28.985Z,80.90
2018-01-20T13:57:57.063Z,80.90
2018-01-20T14:00:25.147Z,80.90
2018-01-20T14:02:53.251Z,80.90
2018-01-20T14:05:21.337Z,81.30
2018-01-20T14:07:49.445Z,81.40
2018-01-20T14:10:17.633Z,81.40
2018-01-20T14:12:45.719Z,81.50
2018-01-20T14:15:13.831Z,81.40
2018-01-20T14:17:41.932Z,81.50
2018-01-20T14:20:10.030Z,81.50
2018-01-20T14:22:38.140Z,81.60
2018-01-20T14:25:06.232Z,81.60
2018-01-20T14:27:34.418Z,81.70
2018-01-20T14:30:02.602Z,81.50
2018-01-20T14:32:30.690Z,81.50
2018-01-20T14:34:58.778Z,81.50
2018-01-20T14:37:26.875Z,81.50
2018-01-20T14:39:54.962Z,81.50
2018-01-20T14:42:23.068Z,81.50
2018-01-20T14:44:51.142Z,81.50
2018-01-20T14:47:19.256Z,81.50
2018-01-20T14:49:47.332Z,81.50
2018-01-20T14:52:15.422Z,81.50
2018-01-20T14:54:43.524Z,81.40
2018-01-20T14:57:11.595Z,82.20
2018-01-20T14:59:39.725Z,81.50
2018-01-20T15:02:07.933Z,81.50
2018-01-20T15:04:36.115Z,81.40
2018-01-20T15:07:04.202Z,81.30
2018-01-20T15:09:32.307Z,81.30
2018-01-20T15:12:01.167Z,81.30
2018-01-20T15:14:29.295Z,81.30
2018-01-20T15:16:57.388Z,81.30
2018-01-20T15:19:25.505Z,81.20
2018-01-20T15:21:53.597Z,81.30
2018-01-20T15:24:21.707Z,81.30
2018-01-20T15:26:49.797Z,81.40
2018-01-20T15:29:17.881Z,81.40
2018-01-20T15:31:45.999Z,81.50
2018-01-20T15:34:14.095Z,81.60
2018-01-20T15:36:42.185Z,81.50
2018-01-20T15:39:11.088Z,81.50
2018-01-20T15:41:39.189Z,81.50
2018-01-20T15:44:07.343Z,81.50
2018-01-20T15:46:36.848Z,81.50
2018-01-20T15:49:05.695Z,81.50
2018-01-20T15:51:33.916Z,81.50
2018-01-20T15:54:02.044Z,81.50
2018-01-20T15:56:30.142Z,81.50
2018-01-20T15:58:58.614Z,81.40
2018-01-20T16:01:26.696Z,81.50
2018-01-20T16:03:54.819Z,81.50
2018-01-20T16:06:22.904Z,81.50
2018-01-20T16:08:50.994Z,81.50
2018-01-20T16:11:19.075Z,81.50
2018-01-20T16:13:47.174Z,81.50
2018-01-20T16:16:15.386Z,81.40
2018-01-20T16:18:43.621Z,81.50
2018-01-20T16:21:12.559Z,81.60
2018-01-20T16:23:40.647Z,81.50
2018-01-20T16:26:08.736Z,81.70
2018-01-20T16:28:36.826Z,81.70
2018-01-20T16:31:04.921Z,81.80
2018-01-20T16:33:33.029Z,81.70
2018-01-20T16:36:01.134Z,81.80
2018-01-20T16:38:29.241Z,81.70
2018-01-20T16:40:57.337Z,81.70
2018-01-20T16:43:25.789Z,81.50
2018-01-20T16:45:53.897Z,81.50
2018-01-20T16:48:21.977Z,81.50
2018-01-20T16:50:50.082Z,81.50
2018-01-20T16:53:18.219Z,81.60
2018-01-20T16:55:46.381Z,81.70
2018-01-20T16:58:14.859Z,81.80
2018-01-20T17:00:43.533Z,81.60
2018-01-20T17:03:11.700Z,81.60
2018-01-20T17:05:39.790Z,81.70
2018-01-20T17:08:07.909Z,81.80
2018-01-20T17:23:31.104Z,81.80
2018-01-20T17:25:59.208Z,81.50
2018-01-20T17:28:27.325Z,82.10
2018-01-20T17:30:55.418Z,82.20
2018-01-20T17:33:23.525Z,82.10
2018-01-20T17:35:51.645Z,81.80
2018-01-20T17:38:20.228Z,81.60
2018-01-20T17:40:48.436Z,81.40
2018-01-20T17:43:16.540Z,81.30
2018-01-20T17:45:44.653Z,81.20
2018-01-20T17:48:12.756Z,81.20
2018-01-20T17:50:40.890Z,81.20
2018-01-20T17:53:09.010Z,81.40
2018-01-20T17:55:37.115Z,81.50
2018-01-20T17:58:05.970Z,81.60
2018-01-20T18:00:34.107Z,81.50
2018-01-20T18:03:02.253Z,81.60
2018-01-20T18:05:30.437Z,81.60
2018-01-20T18:07:58.720Z,81.70
2018-01-20T18:10:26.931Z,81.70
2018-01-20T18:12:55.094Z,81.90
2018-01-20T18:15:23.177Z,81.90
2018-01-20T18:17:51.334Z,82.10
2018-01-20T18:20:19.951Z,82.10
2018-01-20T18:22:48.152Z,82.20
2018-01-20T18:25:17.010Z,82.30
2018-01-20T18:27:45.113Z,82.30
2018-01-20T18:30:13.968Z,82.50
2018-01-20T18:32:42.172Z,82.50
2018-01-20T18:35:10.300Z,82.60
2018-01-20T18:37:38.508Z,82.60
2018-01-20T18:40:06.620Z,82.70
2018-01-20T18:42:34.709Z,82.70
2018-01-20T18:45:02.806Z,82.70
2018-01-20T18:47:30.908Z,82.80
2018-01-20T18:49:59.924Z,82.90
2018-01-20T18:52:28.083Z,82.80
2018-01-20T18:54:56.323Z,82.80
2018-01-20T18:57:24.588Z,82.90
2018-01-20T18:59:52.742Z,83.00
2018-01-20T19:02:20.840Z,83.00
2018-01-20T19:04:48.990Z,83.00
2018-01-20T19:07:17.358Z,83.10
2018-01-20T19:09:45.490Z,83.10
2018-01-20T19:12:14.205Z,83.10
2018-01-20T19:14:42.366Z,83.10
2018-01-20T19:17:11.251Z,83.70
2018-01-20T19:19:39.434Z,83.10
2018-01-20T19:22:08.291Z,83.10
2018-01-20T19:24:36.467Z,83.20
2018-01-20T19:27:04.611Z,83.20
2018-01-20T19:29:32.774Z,83.30
2018-01-20T19:32:01.100Z,83.30
2018-01-20T19:34:29.299Z,83.30
2018-01-20T19:36:57.512Z,83.30
2018-01-20T19:39:25.748Z,83.30
2018-01-20T19:41:54.072Z,83.30
2018-01-20T19:44:22.288Z,83.30
2018-01-20T19:46:51.243Z,83.30
2018-01-20T19:49:19.508Z,83.30
2018-01-20T19:51:47.743Z,83.30
2018-01-20T19:54:16.654Z,83.40
2018-01-20T19:56:44.852Z,83.40
2018-01-20T19:59:13.096Z,83.30
2018-01-20T20:01:41.372Z,83.40
2018-01-20T20:04:09.718Z,83.40
2018-01-20T20:06:37.996Z,83.40
2018-01-20T20:09:06.258Z,83.40
2018-01-20T20:11:34.458Z,83.40
2018-01-20T20:14:02.689Z,83.40
2018-01-20T20:16:31.803Z,83.40
2018-01-20T20:19:00.821Z,83.40
2018-01-20T20:21:29.928Z,83.40
2018-01-20T20:23:58.161Z,83.40
2018-01-20T20:26:26.402Z,83.40
2018-01-20T20:28:55.773Z,83.40
2018-01-20T20:31:23.980Z,83.50
2018-01-20T20:33:52.188Z,83.50
2018-01-20T20:36:20.662Z,83.50
2018-01-20T20:38:48.961Z,83.40
2018-01-20T20:41:17.379Z,83.50
2018-01-20T20:43:45.608Z,83.50
2018-01-20T20:46:14.644Z,83.40
2018-01-20T20:48:42.859Z,83.40
2018-01-20T20:51:11.091Z,83.40
2018-01-20T20:53:39.325Z,83.50
2018-01-20T20:56:08.526Z,83.60
2018-01-20T20:58:36.797Z,83.50
2018-01-20T21:01:05.060Z,83.50
2018-01-20T21:03:33.289Z,83.60
2018-01-20T21:06:02.402Z,83.50
2018-01-20T21:08:30.600Z,83.50
2018-01-20T21:10:58.937Z,83.60
2018-01-20T21:13:27.155Z,83.70
2018-01-20T21:15:55.357Z,83.60
2018-01-20T21:18:23.618Z,83.60
2018-01-20T21:20:52.763Z,83.70
2018-01-20T21:23:20.972Z,83.60
2018-01-20T21:25:49.147Z,83.60
2018-01-20T21:28:17.371Z,83.70
2018-01-20T21:30:45.549Z,83.70
2018-01-20T21:33:13.766Z,83.70
2018-01-20T21:35:42.039Z,83.70
2018-01-20T21:38:10.408Z,83.80
2018-01-20T21:40:38.668Z,83.90
2018-01-20T21:43:06.901Z,83.90
2018-01-20T21:45:35.185Z,83.90
2018-01-20T21:48:03.436Z,83.90
2018-01-20T21:50:31.654Z,83.80
2018-01-20T21:52:59.871Z,83.80
2018-01-20T21:55:28.196Z,83.90
2018-01-20T21:57:56.366Z,83.90
2018-01-20T22:00:25.308Z,83.30
2018-01-20T22:02:53.459Z,83.90
2018-01-20T22:05:21.870Z,84.00
2018-01-20T22:07:50.631Z,84.00
2018-01-20T22:10:18.791Z,83.90
2018-01-20T22:12:46.906Z,84.00
2018-01-20T22:15:15.093Z,84.00
2018-01-20T22:17:44.024Z,84.00
2018-01-20T22:20:12.748Z,84.00
2018-01-20T22:22:40.849Z,83.90
2018-01-20T22:25:09.275Z,84.00
2018-01-20T22:27:37.391Z,84.00
2018-01-20T22:30:05.493Z,84.00
2018-01-20T22:32:33.623Z,84.00
2018-01-20T22:35:01.769Z,83.90
2018-01-20T22:37:29.890Z,84.00
2018-01-20T22:39:58.014Z,83.90
2018-01-20T22:42:26.141Z,84.00
2018-01-20T22:44:54.241Z,84.00
2018-01-20T22:47:22.328Z,83.90
2018-01-20T22:49:50.524Z,84.00
2018-01-20T22:52:18.630Z,84.00
2018-01-20T22:54:46.718Z,83.90
2018-01-20T22:57:15.559Z,84.00
2018-01-20T22:59:43.672Z,83.90
2018-01-20T23:02:11.792Z,84.00
2018-01-20T23:04:39.955Z,84.00
2018-01-20T23:07:08.038Z,84.00
2018-01-20T23:09:36.188Z,84.00
2018-01-20T23:12:04.301Z,84.00
2018-01-20T23:14:32.450Z,84.00
2018-01-20T23:17:00.546Z,84.10
2018-01-20T23:19:28.636Z,84.10
2018-01-20T23:21:56.798Z,84.20
2018-01-20T23:24:24.951Z,84.20
2018-01-20T23:26:53.103Z,84.20
2018-01-20T23:29:21.940Z,84.40
2018-01-20T23:31:50.069Z,84.40
2018-01-20T23:34:18.157Z,85.20
2018-01-20T23:36:46.269Z,84.30
2018-01-20T23:39:14.428Z,84.30
2018-01-20T23:41:42.605Z,84.30
2018-01-20T23:44:10.703Z,84.30
2018-01-20T23:46:38.809Z,84.20
2018-01-20T23:49:06.922Z,84.20
2018-01-20T23:51:35.016Z,84.20
2018-01-20T23:54:03.935Z,84.20
2018-01-20T23:56:32.035Z,84.10
2018-01-20T23:59:00.143Z,84.00
